Portada
METAR-TAF:

METAR-TAF

Aeroports :

Curaçao, Antilles Neerlandeses

latitud: 12-12N, longitud: 068-58W, altitud: 9 m

Observació

L'informe es va fer fa 1 hora i 11 minuts, a les 04:00 UTC
Vent 10 kt del Est
Temperatura 28°C
Humitat 79%
Pressió 1012 hPa
Visibilitat 10 km o més
Núvols disperses a una alçada de 1800 ft

METAR: TNCC 150400Z 09010KT 9999 SCT018 28/24 Q1012 NOSIG

Hora: 01:11 (05:11 UTC)

Pronòstic

L'informe es va fer fa 11 hores i 56 minuts, a les 17:15 UTC
Pronòstic vàlid del 14 a les 18 UTC al 15 a les 18 UTC
Vent 10 kt del Est
Visibilitat 10 km o més
Núvols disperses a una alçada de 2000 ft
Probabilitat 40% :
Temporalment
l' 14 a les 18 UTC al 15 a les 18 UTC
Visibilitat: 5000 m
Cel ennuvolat a una alçada de 1400 ft
xàfecs de pluja

TAF: TNCC 141715Z 1418/1518 08010KT 9999 SCT020 PROB40 TEMPO 1418/1518 5000 SHRA BKN014

Observacions i pronòstics meteorològics de més de 4000 aeroports (METAR i TAF).

Les estacions disponibles són els punts grocs i vermells al mapa.

Posi el ratolí al punt desitjat per veure el nom de l'estació.

Feu clic per veure les observacions i els pronòstics meteorològics.

Per canviar el mapa: feu clic els botons verds amb una creu de color negre per apropar; al botó verd amb un guió per allunyar la imatge; o en les fletxes verdes per a mapes adjacents.


METAR-TAF: